createdAt,value
2022-09-06T00:00:27.200Z,77.90
2022-09-06T00:02:57.395Z,77.67
2022-09-06T00:05:24.447Z,78.52
2022-09-06T00:07:51.532Z,78.41
2022-09-06T00:10:18.850Z,78.07
2022-09-06T00:12:47.247Z,78.67
2022-09-06T00:15:14.267Z,78.31
2022-09-06T00:17:41.310Z,77.27
2022-09-06T00:20:08.709Z,77.35
2022-09-06T00:22:37.373Z,76.00
2022-09-06T00:25:06.529Z,76.27
2022-09-06T00:27:34.368Z,78.71
2022-09-06T00:30:04.028Z,79.45
2022-09-06T00:32:31.934Z,79.43
2022-09-06T00:34:59.054Z,78.19
2022-09-06T00:37:26.083Z,79.09
2022-09-06T00:39:53.113Z,80.25
2022-09-06T00:42:20.301Z,79.95
2022-09-06T00:44:48.833Z,80.27
2022-09-06T00:47:16.265Z,78.63
2022-09-06T00:49:51.588Z,78.41
2022-09-06T00:52:19.930Z,80.38
2022-09-06T00:54:48.710Z,80.74
2022-09-06T00:57:17.612Z,81.31
2022-09-06T00:59:46.950Z,81.17
2022-09-06T01:02:14.992Z,81.08
2022-09-06T01:04:44.853Z,81.38
2022-09-06T01:07:33.215Z,81.03
2022-09-06T01:10:26.081Z,80.53
2022-09-06T01:13:00.797Z,80.73
2022-09-06T01:16:20.272Z,80.66
2022-09-06T01:19:25.365Z,80.89
2022-09-06T01:22:04.260Z,80.48
2022-09-06T01:25:19.828Z,79.45
2022-09-06T01:28:39.091Z,80.91
2022-09-06T01:31:27.314Z,81.42
2022-09-06T01:34:02.997Z,81.82
2022-09-06T01:36:54.417Z,81.81
2022-09-06T01:39:33.155Z,80.49
2022-09-06T01:42:34.997Z,80.37
2022-09-06T01:45:17.865Z,81.11
2022-09-06T01:48:29.680Z,82.25
2022-09-06T01:51:23.715Z,80.89
2022-09-06T01:54:11.658Z,78.70
2022-09-06T01:57:08.445Z,79.04
2022-09-06T01:59:47.421Z,81.97
2022-09-06T02:02:35.662Z,82.92
2022-09-06T02:05:11.617Z,82.60
2022-09-06T02:07:41.945Z,83.79
2022-09-06T02:10:26.641Z,83.44
2022-09-06T02:12:59.149Z,82.25
2022-09-06T02:15:32.689Z,83.00
2022-09-06T02:18:08.545Z,84.13
2022-09-06T02:20:43.240Z,82.82
2022-09-06T02:23:11.681Z,81.55
2022-09-06T02:25:52.438Z,79.96
2022-09-06T02:28:19.769Z,79.58
2022-09-06T02:30:52.949Z,79.94
2022-09-06T02:33:24.346Z,79.86
2022-09-06T02:35:54.656Z,80.05
2022-09-06T02:38:25.996Z,81.12
2022-09-06T02:40:56.215Z,82.27
2022-09-06T02:43:23.272Z,83.59
2022-09-06T02:45:50.456Z,83.75
2022-09-06T02:48:17.849Z,83.93
2022-09-06T02:50:44.960Z,84.24
2022-09-06T02:53:14.514Z,83.58
2022-09-06T02:55:42.051Z,83.11
2022-09-06T02:58:11.222Z,83.79
2022-09-06T03:00:38.724Z,84.29
2022-09-06T03:03:05.967Z,85.00
2022-09-06T03:05:33.485Z,85.04
2022-09-06T03:08:01.067Z,85.02
2022-09-06T03:10:28.218Z,85.00
2022-09-06T03:12:55.538Z,83.27
2022-09-06T03:15:22.623Z,83.10
2022-09-06T03:17:49.871Z,84.47
2022-09-06T03:20:17.187Z,84.05
2022-09-06T03:22:44.302Z,83.12
2022-09-06T03:25:11.422Z,81.94
2022-09-06T03:27:38.496Z,81.98
2022-09-06T03:30:06.966Z,84.69
2022-09-06T03:32:34.175Z,84.74
2022-09-06T03:35:01.898Z,84.70
2022-09-06T03:37:29.030Z,85.70
2022-09-06T13:51:20.338Z,21.56
2022-09-06T13:53:49.819Z,21.59
2022-09-06T13:56:18.193Z,22.21
2022-09-06T13:58:46.707Z,21.37
2022-09-06T14:01:15.375Z,20.79
2022-09-06T14:03:45.169Z,21.12
2022-09-06T14:06:13.702Z,21.31
2022-09-06T14:09:05.954Z,20.80
2022-09-06T14:11:32.108Z,21.21
2022-09-06T14:14:00.714Z,21.54
2022-09-06T14:16:30.141Z,20.92
2022-09-06T14:18:58.914Z,20.72
2022-09-06T14:21:27.562Z,20.41
2022-09-06T14:23:58.880Z,20.17
2022-09-06T14:26:31.427Z,21.07
2022-09-06T14:29:00.047Z,21.51
2022-09-06T14:31:29.247Z,21.96
2022-09-06T14:33:58.708Z,22.35
2022-09-06T14:36:29.790Z,22.34
2022-09-06T14:39:00.386Z,22.95
2022-09-06T14:41:29.350Z,24.13
2022-09-06T14:43:59.123Z,24.65
2022-09-06T14:46:28.547Z,24.85
2022-09-06T14:49:10.107Z,25.77
2022-09-06T14:51:40.082Z,26.35
2022-09-06T14:54:14.786Z,27.12
2022-09-06T14:56:43.947Z,28.35
2022-09-06T14:59:12.939Z,28.26
2022-09-06T15:01:41.750Z,28.47
2022-09-06T15:04:12.275Z,29.19
2022-09-06T15:06:45.001Z,29.42
2022-09-06T15:09:17.742Z,30.01
2022-09-06T15:11:51.854Z,30.77
2022-09-06T15:14:23.239Z,30.67
2022-09-06T15:16:55.820Z,31.15
2022-09-06T15:19:27.073Z,31.23
2022-09-06T15:21:57.428Z,31.38
2022-09-06T15:24:26.432Z,30.96
2022-09-06T15:26:55.294Z,31.02
2022-09-06T15:29:24.132Z,31.50
2022-09-06T15:31:53.914Z,31.92
2022-09-06T15:34:25.489Z,32.10
2022-09-06T15:36:54.613Z,32.13
2022-09-06T15:39:23.199Z,32.51
2022-09-06T15:41:51.996Z,32.64
2022-09-06T15:44:21.879Z,33.31
2022-09-06T15:46:59.387Z,33.46
2022-09-06T15:49:31.938Z,33.98
2022-09-06T15:52:03.400Z,34.57
2022-09-06T15:54:50.768Z,34.87
2022-09-06T15:57:19.462Z,34.76
2022-09-06T15:59:48.001Z,34.89
2022-09-06T16:02:16.957Z,35.24
2022-09-06T16:04:46.847Z,35.41
2022-09-06T16:07:15.425Z,35.64
2022-09-06T16:09:43.898Z,35.85
2022-09-06T16:12:12.409Z,36.15
2022-09-06T16:14:41.108Z,37.19
2022-09-06T16:17:09.706Z,38.25
2022-09-06T16:19:38.280Z,39.41
2022-09-06T16:22:06.759Z,39.06
2022-09-06T16:24:35.270Z,38.91
2022-09-06T16:27:04.073Z,39.56
2022-09-06T16:29:33.184Z,40.96
2022-09-06T16:32:01.628Z,40.85
2022-09-06T16:34:30.181Z,41.47
2022-09-06T16:36:58.721Z,41.95
2022-09-06T16:39:27.245Z,42.15
2022-09-06T16:41:55.795Z,41.50
2022-09-06T16:44:24.258Z,41.14
2022-09-06T16:46:53.840Z,40.57
2022-09-06T16:49:23.564Z,40.48
2022-09-06T16:51:52.511Z,40.08
2022-09-06T16:54:21.138Z,39.66
2022-09-06T16:56:50.748Z,39.75
2022-09-06T16:59:19.244Z,39.58
2022-09-06T17:01:48.194Z,39.83
2022-09-06T17:04:16.915Z,39.63
2022-09-06T17:06:47.104Z,39.75
2022-09-06T17:09:19.569Z,40.00
2022-09-06T17:11:50.376Z,39.47
2022-09-06T17:14:19.229Z,40.02
2022-09-06T17:17:05.960Z,40.20
2022-09-06T17:19:41.435Z,40.36
2022-09-06T17:22:13.176Z,40.90
2022-09-06T17:24:42.734Z,40.75
2022-09-06T17:27:11.493Z,41.33
2022-09-06T17:29:40.288Z,42.65
2022-09-06T17:32:10.631Z,43.76
2022-09-06T17:34:40.628Z,43.86
2022-09-06T17:37:09.289Z,43.93
2022-09-06T17:39:38.906Z,44.87
2022-09-06T17:42:08.522Z,44.76
2022-09-06T17:44:37.725Z,44.31
2022-09-06T17:47:12.834Z,45.18
2022-09-06T17:49:43.288Z,47.01
2022-09-06T17:52:12.542Z,45.88
2022-09-06T17:54:41.086Z,46.45
2022-09-06T17:57:09.609Z,49.14
2022-09-06T17:59:38.714Z,47.81
2022-09-06T18:02:08.499Z,47.26
2022-09-06T18:04:37.408Z,47.36
2022-09-06T18:07:06.133Z,47.78
2022-09-06T18:09:34.695Z,50.93
2022-09-06T18:12:04.109Z,49.75
2022-09-06T18:14:32.724Z,48.91
2022-09-06T18:17:01.276Z,49.81
2022-09-06T18:19:30.117Z,48.85
2022-09-06T18:21:58.577Z,47.89
2022-09-06T18:24:27.272Z,48.72
2022-09-06T18:26:55.757Z,47.12
2022-09-06T18:29:24.339Z,48.23
2022-09-06T18:31:54.276Z,49.44
2022-09-06T18:34:23.069Z,47.79
2022-09-06T18:36:51.572Z,47.99
2022-09-06T18:39:20.618Z,46.98
2022-09-06T18:42:01.152Z,46.81
2022-09-06T18:44:33.211Z,47.24
2022-09-06T18:47:05.935Z,46.88
2022-09-06T18:49:36.512Z,48.07
2022-09-06T18:52:07.094Z,50.39
2022-09-06T18:54:35.875Z,49.80
2022-09-06T18:57:04.386Z,50.82
2022-09-06T18:59:32.897Z,50.82
2022-09-06T19:02:01.572Z,49.30
2022-09-06T19:04:31.202Z,52.28
2022-09-06T19:07:03.992Z,49.81
2022-09-06T19:09:32.978Z,49.22
2022-09-06T19:12:01.984Z,50.43
2022-09-06T19:14:30.423Z,50.72
2022-09-06T19:16:58.939Z,51.04
2022-09-06T19:19:27.492Z,51.21
2022-09-06T19:21:55.901Z,52.15
2022-09-06T19:24:25.715Z,51.42
2022-09-06T19:26:55.346Z,50.00
2022-09-06T19:29:24.150Z,49.37
2022-09-06T19:31:53.124Z,49.13
2022-09-06T19:34:22.200Z,49.66
2022-09-06T19:36:55.371Z,49.93
2022-09-06T19:39:32.360Z,50.17
2022-09-06T19:42:03.815Z,50.72
2022-09-06T19:44:33.106Z,50.94
2022-09-06T19:47:02.383Z,50.53
2022-09-06T19:49:31.010Z,50.49
2022-09-06T19:51:59.474Z,50.35
2022-09-06T19:54:27.907Z,50.46
2022-09-06T19:56:56.413Z,49.68
2022-09-06T19:59:25.040Z,50.87
2022-09-06T20:01:54.304Z,50.56
2022-09-06T20:04:23.146Z,50.62
2022-09-06T20:06:51.609Z,49.67
2022-09-06T20:09:20.218Z,50.80
2022-09-06T20:11:48.885Z,52.52
2022-09-06T20:14:17.464Z,56.07
2022-09-06T20:16:45.965Z,56.41
2022-09-06T20:19:15.324Z,57.59
2022-09-06T20:21:43.760Z,58.43
2022-09-06T20:24:12.298Z,59.10
2022-09-06T20:26:40.833Z,58.93
2022-09-06T20:29:09.739Z,58.23
2022-09-06T20:31:38.585Z,57.21
2022-09-06T20:34:07.860Z,56.32
2022-09-06T20:36:36.847Z,55.43
2022-09-06T20:39:05.710Z,54.63
2022-09-06T20:41:34.309Z,54.23
2022-09-06T20:44:03.910Z,53.77
2022-09-06T20:46:36.140Z,53.18
2022-09-06T20:49:05.412Z,54.88
2022-09-06T20:51:36.549Z,57.55
2022-09-06T20:54:06.169Z,60.89
2022-09-06T20:56:39.101Z,61.20
2022-09-06T20:59:11.136Z,60.96
2022-09-06T21:01:45.925Z,59.77
2022-09-06T21:04:16.773Z,59.77
2022-09-06T21:06:46.728Z,59.27
2022-09-06T21:09:15.704Z,60.14
2022-09-06T21:11:45.558Z,60.65
2022-09-06T21:14:14.341Z,61.18
2022-09-06T21:16:45.295Z,59.79
2022-09-06T21:19:13.902Z,58.25
2022-09-06T21:21:43.258Z,56.93
2022-09-06T21:24:12.181Z,54.93
2022-09-06T21:26:43.686Z,53.03
2022-09-06T21:29:12.405Z,50.86
2022-09-06T21:31:41.450Z,50.14
2022-09-06T21:34:16.318Z,50.41
2022-09-06T21:36:45.658Z,49.54
2022-09-06T21:39:14.933Z,49.71
2022-09-06T21:41:44.410Z,49.57
2022-09-06T21:44:13.398Z,48.99
2022-09-06T21:46:42.431Z,49.92
2022-09-06T21:49:13.782Z,48.76
2022-09-06T21:51:43.049Z,48.10
2022-09-06T21:54:11.500Z,48.63
2022-09-06T21:56:41.219Z,48.77
2022-09-06T21:59:11.230Z,48.79
2022-09-06T22:01:43.174Z,47.92
2022-09-06T22:04:14.325Z,48.82
2022-09-06T22:06:42.820Z,48.05
2022-09-06T22:09:13.033Z,47.82
2022-09-06T22:11:44.159Z,47.56
2022-09-06T22:14:15.009Z,46.91
2022-09-06T22:16:43.915Z,47.14
2022-09-06T22:19:12.583Z,47.19
2022-09-06T22:21:40.926Z,47.07
2022-09-06T22:24:12.292Z,46.97
2022-09-06T22:26:41.951Z,46.89
2022-09-06T22:29:13.684Z,47.50
2022-09-06T22:31:42.372Z,47.72
2022-09-06T22:34:11.372Z,48.02
2022-09-06T22:36:40.442Z,48.42
2022-09-06T22:39:09.677Z,48.60
2022-09-06T22:41:38.296Z,47.84
2022-09-06T22:44:07.399Z,48.20
2022-09-06T22:46:37.927Z,47.45
2022-09-06T22:49:06.769Z,47.34
2022-09-06T22:51:35.225Z,46.34
2022-09-06T22:54:04.785Z,46.86
2022-09-06T22:56:33.706Z,45.90
2022-09-06T22:59:02.593Z,45.63
2022-09-06T23:01:32.977Z,45.67
2022-09-06T23:04:01.382Z,46.08
2022-09-06T23:06:29.907Z,46.25
2022-09-06T23:08:59.256Z,46.45
2022-09-06T23:11:28.054Z,46.33
2022-09-06T23:14:01.115Z,46.03
2022-09-06T23:16:29.678Z,46.80
2022-09-06T23:18:58.196Z,46.71
2022-09-06T23:21:27.159Z,46.58
2022-09-06T23:23:57.299Z,46.24
2022-09-06T23:26:31.930Z,46.37
2022-09-06T23:29:00.463Z,46.32
2022-09-06T23:31:32.607Z,46.40
2022-09-06T23:34:02.522Z,46.07
2022-09-06T23:36:32.026Z,45.97
2022-09-06T23:39:02.574Z,46.12
2022-09-06T23:41:31.230Z,46.34
2022-09-06T23:44:00.135Z,46.57
2022-09-06T23:46:28.643Z,46.22
2022-09-06T23:48:57.120Z,46.59
2022-09-06T23:51:25.804Z,46.76
2022-09-06T23:53:54.515Z,46.89
2022-09-06T23:56:22.918Z,47.23
2022-09-06T23:58:51.299Z,47.07
